Terminal Aerodrome Forecast
Issued by NWS

Home | Current Version | Previous Version | Graphics & Text | Print | Product List | Glossary On
Versions: 1 2 3 4 5 6 7 8 9 10 11 12 13 14 15 16 17
000
FTUS43 KABR 262300
TAFMBG
TAF
KMBG 262324Z 2700/2724 32016G27KT P6SM FEW080
     FM270200 32008KT P6SM SKC
     FM271500 34012G21KT P6SM SCT050=

USA.gov is the U.S. government's official web portal to all federal, state and local government web resources and services.